Time;durP1;ratioP1;P1;durP2;ratioP2;P2;SDS_P1;SDS_P2;PMS_P1;PMS_P2;Temp;Humidity;BMP_temperature;BMP_pressure;BME280_temperature;BME280_humidity;BME280_pressure;Samples;Min_cycle;Max_cycle;Signal;HPM_P1;HPM_P2
2021/12/09 00:01:45;;;;;;;3.98;3.30;;;;;;;1.67;73.32;98886.65;1799249;78;21581;-40
2021/12/09 00:04:14;;;;;;;4.20;3.02;;;;;;;1.65;73.31;98888.28;1799696;79;21077;-39
2021/12/09 00:06:44;;;;;;;5.47;3.33;;;;;;;1.68;73.38;98884.22;1799191;78;20918;-40
2021/12/09 00:09:17;;;;;;;5.80;3.72;;;;;;;1.65;73.53;98888.83;1799184;78;21257;-40
2021/12/09 00:11:46;;;;;;;4.70;2.98;;;;;;;1.60;73.65;98893.78;1798179;79;21108;-40
2021/12/09 00:14:30;;;;;;;5.35;3.27;;;;;;;1.59;73.76;98892.77;1790867;80;20957;-40
2021/12/09 00:17:03;;;;;;;4.37;3.15;;;;;;;1.59;73.84;98902.13;1790861;80;20962;-39
2021/12/09 00:19:30;;;;;;;5.28;3.27;;;;;;;1.60;73.67;98899.12;1790772;79;21009;-40
2021/12/09 00:21:58;;;;;;;5.40;3.50;;;;;;;1.63;73.59;98907.08;1790902;80;21045;-40
2021/12/09 00:24:26;;;;;;;4.00;3.20;;;;;;;1.64;73.72;98904.65;1790686;80;21130;-40
2021/12/09 00:26:52;;;;;;;5.12;3.62;;;;;;;1.66;73.76;98907.78;1791160;80;20918;-40
2021/12/09 00:37:24;;;;;;;7.33;3.60;;;;;;;1.73;73.50;98916.14;1718887;82;21569;-40
2021/12/09 00:39:44;;;;;;;5.90;3.70;;;;;;;1.72;73.55;98920.69;1729518;82;21281;-39
2021/12/09 00:42:11;;;;;;;4.60;3.42;;;;;;;1.73;73.46;98918.81;1759474;81;21026;-40
2021/12/09 00:44:38;;;;;;;4.65;3.27;;;;;;;1.72;73.39;98916.69;1759541;81;20978;-40
2021/12/09 00:47:05;;;;;;;5.08;3.30;;;;;;;1.73;73.30;98920.15;1759624;80;21494;-40
2021/12/09 00:49:31;;;;;;;4.95;3.12;;;;;;;1.72;73.12;98928.71;1759811;80;21037;-40
2021/12/09 00:51:58;;;;;;;6.00;3.12;;;;;;;1.74;73.20;98923.06;1759664;81;21137;-40
2021/12/09 00:54:25;;;;;;;4.87;3.10;;;;;;;1.74;73.06;98929.74;1759735;81;21556;-40
2021/12/09 00:56:54;;;;;;;6.65;3.80;;;;;;;1.70;73.25;98926.88;1759704;81;21233;-40
2021/12/09 00:59:21;;;;;;;3.98;3.00;;;;;;;1.68;73.11;98926.97;1759514;81;21064;-40
2021/12/09 01:01:47;;;;;;;4.37;3.25;;;;;;;1.61;73.10;98930.63;1759753;81;21005;-39
2021/12/09 01:04:14;;;;;;;4.67;3.17;;;;;;;1.57;73.22;98926.47;1759557;80;21114;-40
2021/12/09 01:06:41;;;;;;;4.45;3.10;;;;;;;1.61;73.27;98924.75;1759945;80;21445;-40
2021/12/09 01:09:08;;;;;;;4.53;3.15;;;;;;;1.59;73.31;98925.63;1759622;80;21077;-39
2021/12/09 01:11:37;;;;;;;4.33;3.35;;;;;;;1.56;73.55;98925.44;1759517;81;21037;-41
2021/12/09 01:14:03;;;;;;;4.17;3.22;;;;;;;1.56;73.72;98932.11;1767521;80;21088;-41
2021/12/09 01:16:31;;;;;;;4.60;3.22;;;;;;;1.61;73.72;98935.98;1767861;80;21069;-41
2021/12/09 01:18:57;;;;;;;4.92;3.20;;;;;;;1.65;73.53;98933.71;1767711;80;21566;-41
2021/12/09 01:21:29;;;;;;;5.42;3.52;;;;;;;1.74;73.50;98931.84;1767888;80;21988;-41
2021/12/09 01:23:56;;;;;;;4.58;3.40;;;;;;;1.77;73.52;98937.12;1768198;81;20953;-41
2021/12/09 01:26:23;;;;;;;6.20;3.62;;;;;;;1.77;73.47;98935.79;1767764;81;21535;-41
2021/12/09 01:28:58;;;;;;;5.10;3.52;;;;;;;1.78;73.46;98940.05;1768005;81;21844;-41
2021/12/09 01:31:26;;;;;;;4.10;3.12;;;;;;;1.79;73.45;98938.95;1768318;78;21543;-41
2021/12/09 01:33:52;;;;;;;5.22;3.60;;;;;;;1.77;73.32;98937.12;1768263;78;20961;-41
2021/12/09 01:36:20;;;;;;;4.67;3.47;;;;;;;1.79;73.12;98934.16;1767977;80;21578;-41
2021/12/09 01:38:47;;;;;;;4.55;3.35;;;;;;;1.80;73.13;98932.48;1767867;81;21028;-40
2021/12/09 01:41:14;;;;;;;4.67;3.60;;;;;;;1.77;73.24;98934.45;1799163;79;21144;-41
2021/12/09 01:43:42;;;;;;;6.35;4.15;;;;;;;1.80;73.35;98938.38;1799420;78;21476;-41
2021/12/09 01:46:12;;;;;;;4.67;3.30;;;;;;;1.77;73.34;98935.79;1799734;79;21027;-40
2021/12/09 01:48:40;;;;;;;4.55;3.33;;;;;;;1.81;73.32;98939.41;1799352;79;21021;-40
2021/12/09 01:51:07;;;;;;;4.87;3.70;;;;;;;1.84;73.16;98938.02;1799725;79;21099;-40
2021/12/09 01:53:33;;;;;;;3.98;3.37;;;;;;;1.90;73.08;98932.19;1799208;78;21120;-41
2021/12/09 01:56:03;;;;;;;4.80;3.60;;;;;;;1.92;73.17;98934.56;1799302;78;21033;-41
2021/12/09 01:58:31;;;;;;;6.15;3.98;;;;;;;1.93;73.09;98930.25;1799323;78;20969;-41
2021/12/09 02:00:57;;;;;;;7.85;4.12;;;;;;;1.92;73.14;98931.34;1799673;79;21060;-41
2021/12/09 02:03:25;;;;;;;4.62;3.50;;;;;;;1.92;73.17;98933.22;1799176;79;21053;-40
2021/12/09 02:05:51;;;;;;;5.30;3.92;;;;;;;1.95;73.01;98938.72;1799274;79;21081;-41
2021/12/09 02:08:18;;;;;;;5.05;3.60;;;;;;;1.99;72.96;98941.00;1799256;79;22095;-40
2021/12/09 02:10:46;;;;;;;4.80;3.52;;;;;;;2.03;72.87;98942.52;1799513;78;21027;-41
2021/12/09 02:13:13;;;;;;;5.20;3.90;;;;;;;2.03;73.00;98939.27;1795147;79;21057;-41
2021/12/09 02:15:40;;;;;;;6.67;4.20;;;;;;;2.07;73.01;98947.48;1790956;80;21724;-41
2021/12/09 02:18:09;;;;;;;5.25;4.15;;;;;;;2.08;72.95;98946.38;1790831;80;21551;-41
2021/12/09 02:20:37;;;;;;;5.65;4.20;;;;;;;2.05;72.86;98947.78;1790851;79;21526;-40
2021/12/09 02:23:11;;;;;;;5.10;3.55;;;;;;;2.06;72.89;98950.70;1790984;79;21610;-41
2021/12/09 02:25:41;;;;;;;4.25;3.15;;;;;;;2.11;72.73;98951.09;1790680;80;21022;-41
2021/12/09 02:28:08;;;;;;;4.42;3.47;;;;;;;2.12;72.81;98953.47;1790893;80;21038;-40
2021/12/09 02:30:35;;;;;;;5.50;3.60;;;;;;;2.13;73.02;98953.67;1790915;79;21921;-40
2021/12/09 02:33:01;;;;;;;5.97;3.95;;;;;;;2.12;73.00;98957.47;1790812;80;21501;-41
2021/12/09 02:35:28;;;;;;;4.83;3.72;;;;;;;2.08;73.14;98956.50;1790606;79;20958;-41
2021/12/09 02:37:55;;;;;;;4.62;3.70;;;;;;;2.04;73.23;98962.24;1790924;80;21061;-41
2021/12/09 02:40:21;;;;;;;4.95;3.65;;;;;;;2.07;73.27;98961.64;1790747;80;21007;-41
2021/12/09 02:42:48;;;;;;;4.15;3.70;;;;;;;2.10;73.29;98958.33;1790956;80;21061;-41
2021/12/09 02:45:15;;;;;;;4.62;3.62;;;;;;;2.05;73.43;98961.70;1790877;79;21571;-41
2021/12/09 02:47:41;;;;;;;4.53;3.20;;;;;;;2.00;73.59;98955.95;1791147;80;21041;-41
2021/12/09 02:50:09;;;;;;;3.90;3.30;;;;;;;1.94;73.70;98960.41;1790919;80;21025;-41
2021/12/09 02:52:38;;;;;;;3.92;2.80;;;;;;;1.88;73.89;98963.80;1791223;79;21233;-41
2021/12/09 02:55:07;;;;;;;4.92;3.10;;;;;;;1.89;74.04;98954.66;1791030;80;21061;-41
2021/12/09 02:57:34;;;;;;;3.45;2.98;;;;;;;1.88;74.09;98957.67;1791170;79;21504;-41
2021/12/09 03:00:02;;;;;;;4.22;3.77;;;;;;;1.83;74.29;98951.92;1790749;80;21020;-41
2021/12/09 03:02:29;;;;;;;4.58;3.45;;;;;;;1.78;74.45;98958.75;1790679;79;21068;-41
2021/12/09 03:04:58;;;;;;;4.37;3.45;;;;;;;1.72;74.61;98968.00;1791012;80;21084;-41
2021/12/09 03:07:32;;;;;;;3.55;3.25;;;;;;;1.69;74.70;98969.39;1791190;79;21091;-41
2021/12/09 03:10:20;;;;;;;3.83;3.17;;;;;;;1.68;74.90;98972.39;1790908;80;21002;-40
2021/12/09 03:12:50;;;;;;;4.75;3.70;;;;;;;1.63;75.19;98973.88;1791698;79;20989;-41
2021/12/09 03:15:17;;;;;;;4.50;3.30;;;;;;;1.59;75.48;98974.26;1799249;78;28116;-41
2021/12/09 03:17:44;;;;;;;4.58;3.47;;;;;;;1.61;75.52;98980.85;1799372;79;20997;-40
2021/12/09 03:20:12;;;;;;;4.05;3.15;;;;;;;1.64;75.45;98978.13;1799253;79;21138;-40
2021/12/09 03:22:41;;;;;;;3.62;2.83;;;;;;;1.68;75.46;98984.42;1799341;79;21508;-41
2021/12/09 03:25:12;;;;;;;5.08;3.40;;;;;;;1.63;75.48;98986.69;1799261;79;21028;-41
2021/12/09 03:27:40;;;;;;;4.12;3.10;;;;;;;1.59;75.58;98985.73;1799248;79;21562;-41
2021/12/09 03:30:10;;;;;;;3.85;3.10;;;;;;;1.60;75.59;98990.50;1799331;79;21310;-41
2021/12/09 03:32:37;;;;;;;4.45;3.45;;;;;;;1.63;75.52;98988.02;1799364;79;21763;-41
2021/12/09 03:35:06;;;;;;;3.98;3.30;;;;;;;1.63;75.45;98991.23;1799057;79;20949;-41
2021/12/09 03:37:33;;;;;;;4.60;3.80;;;;;;;1.60;75.65;98990.50;1799500;79;21004;-41
2021/12/09 03:40:00;;;;;;;4.47;3.40;;;;;;;1.55;75.67;98989.33;1799211;79;21526;-41
2021/12/09 03:42:29;;;;;;;4.70;3.50;;;;;;;1.51;75.90;98991.81;1799450;79;21029;-41
2021/12/09 03:44:56;;;;;;;4.00;3.33;;;;;;;1.54;75.77;98987.75;1799280;79;21117;-41
2021/12/09 03:47:25;;;;;;;5.62;3.92;;;;;;;1.59;75.90;98992.95;1799231;78;20953;-41
2021/12/09 03:49:52;;;;;;;4.92;3.90;;;;;;;1.58;75.95;98994.84;1799575;79;21028;-40
2021/12/09 03:52:19;;;;;;;5.08;3.62;;;;;;;1.60;75.96;98993.17;1799218;78;21025;-40
2021/12/09 03:54:47;;;;;;;4.87;3.70;;;;;;;1.57;75.89;98999.14;1799481;78;21005;-41
2021/12/09 03:57:13;;;;;;;4.75;4.00;;;;;;;1.61;75.75;98996.09;1799573;79;21116;-41
2021/12/09 03:59:41;;;;;;;5.17;4.47;;;;;;;1.64;75.88;98995.49;1799275;79;20933;-41
2021/12/09 04:02:08;;;;;;;6.15;4.78;;;;;;;1.64;75.89;98993.61;1799495;79;21053;-41
2021/12/09 04:04:34;;;;;;;6.03;4.30;;;;;;;1.63;75.84;98991.23;1799164;79;21015;-41
2021/12/09 04:07:01;;;;;;;6.60;4.40;;;;;;;1.59;75.94;98988.41;1799492;78;21463;-41
2021/12/09 04:09:28;;;;;;;5.90;4.25;;;;;;;1.62;75.90;98992.33;1799332;79;21129;-41
2021/12/09 04:11:54;;;;;;;8.30;4.78;;;;;;;1.65;75.88;98994.37;1799678;78;21067;-41
2021/12/09 04:14:23;;;;;;;7.10;5.30;;;;;;;1.61;75.96;98998.77;1799230;78;21527;-41
2021/12/09 04:16:49;;;;;;;6.25;4.90;;;;;;;1.56;76.03;98996.23;1799637;78;20973;-41
2021/12/09 04:19:16;;;;;;;7.42;5.28;;;;;;;1.55;76.05;98995.44;1799189;79;21087;-41
2021/12/09 04:21:42;;;;;;;7.22;5.35;;;;;;;1.58;75.97;98998.84;1799250;79;22397;-41
2021/12/09 04:24:10;;;;;;;7.15;5.50;;;;;;;1.61;75.94;98996.09;1799194;79;21008;-41
2021/12/09 04:26:43;;;;;;;8.13;5.72;;;;;;;1.59;76.04;98996.97;1799721;78;20965;-41
2021/12/09 04:29:11;;;;;;;7.10;5.20;;;;;;;1.59;76.10;99000.97;1798335;79;20996;-41
2021/12/09 04:31:37;;;;;;;7.03;4.97;;;;;;;1.59;76.02;99007.11;1799324;79;21029;-41
2021/12/09 04:34:04;;;;;;;7.65;5.50;;;;;;;1.64;76.00;99008.30;1799824;79;21056;-41
2021/12/09 04:36:31;;;;;;;7.33;5.40;;;;;;;1.68;75.94;99018.61;1799311;78;21000;-41
2021/12/09 04:38:58;;;;;;;8.28;5.50;;;;;;;1.66;75.86;99010.65;1799305;78;21543;-41
2021/12/09 04:41:24;;;;;;;8.10;6.08;;;;;;;1.64;75.91;99011.52;1799800;79;21064;-41
2021/12/09 04:43:51;;;;;;;6.87;5.20;;;;;;;1.61;75.84;99010.24;1799443;78;21012;-41
2021/12/09 04:46:17;;;;;;;6.72;4.97;;;;;;;1.63;75.82;99012.61;1799516;78;21126;-41
2021/12/09 04:48:44;;;;;;;8.80;5.58;;;;;;;1.68;75.71;99016.48;1799410;78;21005;-41
2021/12/09 04:51:11;;;;;;;7.65;5.97;;;;;;;1.66;75.83;99015.99;1799649;78;21018;-40
2021/12/09 04:53:39;;;;;;;7.78;5.67;;;;;;;1.61;75.87;99019.59;1799337;78;21000;-41
2021/12/09 04:56:05;;;;;;;7.65;5.37;;;;;;;1.59;76.09;99027.69;1799437;78;21527;-41
2021/12/09 04:58:32;;;;;;;7.45;5.53;;;;;;;1.61;76.13;99026.81;1799468;79;21125;-41
2021/12/09 05:01:00;;;;;;;6.78;5.58;;;;;;;1.65;76.07;99031.78;1799259;79;20949;-41
2021/12/09 05:03:29;;;;;;;6.35;5.45;;;;;;;1.64;75.93;99032.36;1799501;78;21036;-40
2021/12/09 05:05:55;;;;;;;8.68;6.10;;;;;;;1.64;76.00;99031.56;1799845;78;20945;-41
2021/12/09 05:08:27;;;;;;;7.40;5.55;;;;;;;1.63;76.00;99036.66;1799381;79;21512;-41
2021/12/09 05:11:07;;;;;;;8.00;5.70;;;;;;;1.63;76.00;99042.80;1799660;79;21142;-41
2021/12/09 05:13:28;;;;;;;6.87;5.37;;;;;;;1.69;75.96;99050.13;1797425;78;21075;-41
2021/12/09 05:15:57;;;;;;;7.83;6.00;;;;;;;1.73;75.92;99052.42;1791125;80;20926;-41
2021/12/09 05:18:24;;;;;;;8.23;5.87;;;;;;;1.74;75.92;99056.67;1790912;79;20974;-42
2021/12/09 05:20:51;;;;;;;8.90;5.80;;;;;;;1.72;75.79;99061.53;1790935;80;21554;-41
2021/12/09 05:23:18;;;;;;;7.72;5.53;;;;;;;1.70;75.80;99066.38;1791120;79;21331;-41
2021/12/09 05:25:45;;;;;;;6.22;4.90;;;;;;;1.73;75.73;99071.13;1790881;80;20942;-41
2021/12/09 05:28:15;;;;;;;7.20;5.65;;;;;;;1.81;75.53;99074.38;1790998;80;21061;-41
2021/12/09 05:33:32;;;;;;;7.67;5.72;;;;;;;1.83;75.76;99078.87;1790953;80;21023;-41
2021/12/09 05:35:58;;;;;;;7.15;5.37;;;;;;;1.84;75.81;99080.43;1790909;80;21893;-41
2021/12/09 05:38:25;;;;;;;6.78;5.03;;;;;;;1.91;75.65;99082.67;1790896;80;21076;-41
2021/12/09 05:40:52;;;;;;;7.85;5.35;;;;;;;1.95;75.26;99088.42;1791081;80;20966;-41
2021/12/09 05:43:18;;;;;;;7.25;5.30;;;;;;;1.92;75.26;99083.70;1790914;80;21061;-42
2021/12/09 05:45:47;;;;;;;7.08;5.45;;;;;;;1.91;75.28;99090.14;1790997;79;21063;-41
2021/12/09 05:48:16;;;;;;;7.30;5.30;;;;;;;1.91;75.34;99094.70;1791137;80;21936;-42
2021/12/09 05:50:43;;;;;;;6.35;4.87;;;;;;;1.90;75.20;99096.58;1769257;80;21563;-41
2021/12/09 05:53:10;;;;;;;6.97;4.92;;;;;;;1.95;75.22;99101.79;1790977;80;21000;-41
2021/12/09 05:55:36;;;;;;;6.85;5.05;;;;;;;2.00;75.19;99100.31;1790930;79;21018;-41
2021/12/09 05:58:03;;;;;;;6.75;4.95;;;;;;;1.99;75.23;99100.07;1791012;79;21475;-41
2021/12/09 06:00:29;;;;;;;7.83;5.72;;;;;;;2.00;75.20;99105.66;1790725;80;21213;-41
2021/12/09 06:02:56;;;;;;;6.75;5.10;;;;;;;1.98;75.07;99115.10;1790881;80;20914;-41
2021/12/09 06:05:24;;;;;;;6.17;4.40;;;;;;;1.98;75.15;99108.42;1790885;80;21026;-41
2021/12/09 06:07:50;;;;;;;6.62;4.85;;;;;;;2.05;75.08;99116.22;1791184;80;20993;-41
2021/12/09 06:10:17;;;;;;;7.67;5.42;;;;;;;2.10;74.91;99113.41;1790998;80;21041;-41
2021/12/09 06:12:43;;;;;;;6.60;5.05;;;;;;;2.12;74.93;99118.45;1791095;79;21086;-41
2021/12/09 06:15:10;;;;;;;7.33;5.50;;;;;;;2.13;74.94;99123.48;1797243;79;20938;-41
2021/12/09 06:17:36;;;;;;;6.97;5.30;;;;;;;2.15;74.85;99125.85;1799374;79;21546;-41
2021/12/09 06:20:04;;;;;;;6.95;5.55;;;;;;;2.12;74.63;99132.63;1799251;79;21064;-41
2021/12/09 06:22:31;;;;;;;6.17;5.05;;;;;;;2.15;74.57;99133.33;1799498;79;21056;-41
2021/12/09 06:24:58;;;;;;;6.87;5.30;;;;;;;2.17;74.63;99137.83;1799348;78;21139;-41
2021/12/09 06:27:25;;;;;;;7.25;5.55;;;;;;;2.19;74.77;99136.95;1799483;79;21060;-41
2021/12/09 06:29:52;;;;;;;6.53;4.72;;;;;;;2.24;74.72;99144.59;1799259;78;20922;-41
2021/12/09 06:32:18;;;;;;;6.40;4.17;;;;;;;2.30;74.57;99146.04;1799653;79;21081;-41
2021/12/09 06:34:45;;;;;;;6.42;5.10;;;;;;;2.31;74.30;99140.94;1799409;78;21009;-41
2021/12/09 06:37:12;;;;;;;6.10;5.00;;;;;;;2.31;74.23;99146.28;1799321;78;21605;-42
2021/12/09 06:39:39;;;;;;;4.72;4.12;;;;;;;2.31;74.36;99144.95;1778097;78;20990;-41
2021/12/09 06:42:08;;;;;;;5.92;4.85;;;;;;;2.32;74.51;99150.00;1766065;81;20957;-41
2021/12/09 06:44:35;;;;;;;7.00;4.75;;;;;;;2.35;74.30;99148.58;1766074;81;21550;-41
2021/12/09 06:47:02;;;;;;;7.60;4.00;;;;;;;2.31;74.15;99155.65;1766135;81;21037;-42
2021/12/09 06:49:30;;;;;;;4.92;3.87;;;;;;;2.34;74.20;99157.69;1766143;81;21623;-41
2021/12/09 06:51:56;;;;;;;5.53;4.25;;;;;;;2.41;74.13;99154.03;1766344;81;21004;-41
2021/12/09 06:54:23;;;;;;;5.35;3.75;;;;;;;2.40;74.19;99160.47;1765965;81;21017;-41
2021/12/09 06:56:49;;;;;;;5.17;4.08;;;;;;;2.39;74.22;99161.56;1766265;81;20997;-41
2021/12/09 06:59:16;;;;;;;5.12;3.85;;;;;;;2.33;74.09;99166.81;1766070;81;21041;-41
2021/12/09 07:01:42;;;;;;;6.12;3.87;;;;;;;2.28;74.18;99166.95;1766464;81;21091;-41
2021/12/09 07:04:10;;;;;;;5.37;4.35;;;;;;;2.28;74.24;99158.92;1766191;81;20977;-41
2021/12/09 07:06:38;;;;;;;6.00;4.70;;;;;;;2.27;74.25;99170.20;1765952;81;20954;-41
2021/12/09 07:09:05;;;;;;;6.87;5.20;;;;;;;2.22;74.42;99168.20;1736200;81;21084;-41
2021/12/09 07:11:34;;;;;;;7.90;5.58;;;;;;;2.08;74.58;99162.38;1765987;81;21535;-41
2021/12/09 07:14:01;;;;;;;7.40;5.08;;;;;;;2.02;74.83;99162.30;1767673;80;21138;-41
2021/12/09 07:16:29;;;;;;;6.53;5.28;;;;;;;2.02;75.05;99164.97;1777234;80;21582;-41
2021/12/09 07:18:58;;;;;;;8.10;5.87;;;;;;;2.07;75.07;99164.84;1777197;80;20966;-41
2021/12/09 07:21:26;;;;;;;6.35;4.47;;;;;;;2.08;75.27;99170.41;1777293;80;20910;-41
2021/12/09 07:23:53;;;;;;;10.28;6.00;;;;;;;2.06;75.24;99169.95;1777264;80;21101;-41
2021/12/09 07:26:20;;;;;;;8.50;5.70;;;;;;;2.06;75.44;99174.50;1777327;80;21135;-41
2021/12/09 07:28:47;;;;;;;8.38;6.08;;;;;;;2.03;75.37;99169.78;1777194;80;20988;-41
2021/12/09 07:31:17;;;;;;;8.13;6.30;;;;;;;2.05;75.44;99174.25;1777300;80;20957;-41
2021/12/09 07:33:44;;;;;;;12.10;6.83;;;;;;;2.09;75.57;99182.69;1777210;80;20941;-42
2021/12/09 07:36:12;;;;;;;10.10;7.53;;;;;;;2.09;75.59;99181.89;1777252;80;21037;-41
2021/12/09 07:38:41;;;;;;;11.93;6.75;;;;;;;2.06;75.61;99184.65;1777099;80;21109;-41
2021/12/09 07:41:08;;;;;;;11.25;6.20;;;;;;;2.05;75.56;99183.06;1777379;80;20938;-41
2021/12/09 07:43:36;;;;;;;8.83;7.05;;;;;;;2.06;75.51;99187.33;1777271;80;21025;-41
2021/12/09 07:46:05;;;;;;;11.45;7.30;;;;;;;2.09;75.37;99188.03;1777233;80;21471;-41
2021/12/09 07:48:32;;;;;;;12.00;7.47;;;;;;;2.08;75.51;99191.04;1777544;80;21017;-42
2021/12/09 07:50:59;;;;;;;13.25;7.53;;;;;;;2.03;75.53;99189.25;1777178;80;22308;-41
2021/12/09 07:53:27;;;;;;;10.08;7.50;;;;;;;2.01;75.61;99190.12;1776723;80;21012;-41
2021/12/09 07:55:54;;;;;;;11.10;7.70;;;;;;;1.97;75.63;99190.50;1779012;80;21028;-42
2021/12/09 07:58:21;;;;;;;9.63;7.78;;;;;;;1.97;75.60;99195.85;1779252;80;21001;-41
2021/12/09 08:00:47;;;;;;;12.85;7.95;;;;;;;1.98;75.78;99197.44;1778826;80;21498;-41
2021/12/09 08:03:14;;;;;;;16.20;8.68;;;;;;;1.97;75.83;99199.86;1778862;80;21072;-41
2021/12/09 08:05:44;;;;;;;11.20;8.40;;;;;;;1.88;75.92;99208.38;1778799;80;20917;-41
2021/12/09 08:08:11;;;;;;;11.70;8.70;;;;;;;1.83;76.11;99203.16;1779513;80;21279;-41
2021/12/09 08:10:38;;;;;;;11.35;8.28;;;;;;;1.85;76.20;99210.31;1778825;80;21056;-41
2021/12/09 08:13:04;;;;;;;13.78;8.15;;;;;;;1.91;76.32;99216.33;1779182;80;21052;-41
2021/12/09 08:15:34;;;;;;;11.35;8.83;;;;;;;1.93;76.33;99216.27;1778667;80;21089;-41
2021/12/09 08:18:14;;;;;;;10.82;8.53;;;;;;;1.92;76.25;99220.03;1779326;80;28223;-41
2021/12/09 08:20:32;;;;;;;12.45;8.05;;;;;;;1.94;76.32;99219.16;1776950;80;21530;-41
2021/12/09 08:22:58;;;;;;;10.78;7.62;;;;;;;2.00;76.19;99211.27;1779108;80;21048;-41
2021/12/09 08:25:25;;;;;;;12.85;8.83;;;;;;;2.06;75.91;99216.73;1778778;80;21609;-41
2021/12/09 08:30:15;;;;;;;17.48;8.58;;;;;;;2.10;75.92;99214.23;1835468;78;22630;-40
2021/12/09 08:32:42;;;;;;;11.43;8.30;;;;;;;2.00;76.08;99215.83;1805786;79;21528;-40
2021/12/09 08:35:09;;;;;;;13.65;9.33;;;;;;;2.05;75.92;99217.83;1805647;79;21043;-40
2021/12/09 08:37:35;;;;;;;13.28;8.70;;;;;;;2.06;75.73;99213.27;1805614;79;21525;-40
2021/12/09 08:40:05;;;;;;;23.83;9.33;;;;;;;2.04;75.97;99220.25;1778524;79;20957;-40
2021/12/09 08:42:32;;;;;;;12.18;8.88;;;;;;;2.07;76.09;99219.66;1752844;81;21603;-41
2021/12/09 08:44:59;;;;;;;13.43;8.48;;;;;;;2.08;75.91;99222.55;1752741;81;20933;-40
2021/12/09 08:47:26;;;;;;;12.35;8.33;;;;;;;2.11;75.77;99220.62;1752831;81;21198;-41
2021/12/09 08:49:52;;;;;;;10.78;8.53;;;;;;;2.17;75.62;99227.42;1752752;81;21539;-40
2021/12/09 08:52:19;;;;;;;12.35;9.28;;;;;;;2.15;75.50;99222.91;1752876;80;20969;-40
2021/12/09 08:54:46;;;;;;;12.93;9.33;;;;;;;2.11;75.50;99217.95;1752748;81;21481;-40
2021/12/09 08:57:12;;;;;;;11.28;9.03;;;;;;;2.10;75.69;99219.58;1752634;81;21013;-40
2021/12/09 08:59:39;;;;;;;16.45;8.88;;;;;;;2.13;75.71;99223.00;1752794;81;21109;-40
2021/12/09 09:02:07;;;;;;;13.98;9.20;;;;;;;2.21;75.49;99218.77;1752531;81;21008;-40
2021/12/09 09:04:33;;;;;;;17.02;9.93;;;;;;;2.29;75.24;99215.34;1752846;81;21024;-40
2021/12/09 09:07:01;;;;;;;13.13;9.98;;;;;;;2.26;75.06;99216.76;1752858;81;21499;-40
2021/12/09 09:09:33;;;;;;;15.08;10.10;;;;;;;2.25;75.22;99218.39;1752588;81;20996;-40
2021/12/09 09:11:56;;;;;;;17.37;9.55;;;;;;;2.24;75.16;99215.47;1746531;81;21822;-40
2021/12/09 09:14:24;;;;;;;14.65;9.35;;;;;;;2.21;75.19;99213.42;1752798;81;20933;-40
2021/12/09 09:16:51;;;;;;;13.65;9.20;;;;;;;2.27;75.12;99208.19;1752749;81;20997;-40
2021/12/09 09:19:18;;;;;;;14.63;10.88;;;;;;;2.37;75.11;99210.59;1752536;81;21025;-40
2021/12/09 09:21:45;;;;;;;17.95;10.72;;;;;;;2.38;74.80;99212.94;1752626;81;21080;-40
2021/12/09 09:24:11;;;;;;;16.00;9.78;;;;;;;2.38;74.85;99213.48;1761327;79;22380;-40
2021/12/09 09:26:39;;;;;;;15.23;10.38;;;;;;;2.37;74.81;99210.59;1777175;80;20940;-40
2021/12/09 09:29:05;;;;;;;17.17;10.10;;;;;;;2.35;74.78;99214.11;1780956;80;21027;-40
2021/12/09 09:31:33;;;;;;;15.20;10.32;;;;;;;2.43;74.75;99215.48;1785892;80;21526;-40
2021/12/09 09:34:02;;;;;;;29.50;11.22;;;;;;;2.48;74.66;99217.23;1785957;79;21023;-40
2021/12/09 09:36:31;;;;;;;17.02;11.83;;;;;;;2.46;74.41;99222.12;1785936;80;21061;-40
2021/12/09 09:39:06;;;;;;;20.12;11.12;;;;;;;2.38;74.51;99225.52;1784216;80;20980;-40
2021/12/09 09:41:32;;;;;;;17.42;10.45;;;;;;;2.35;74.69;99222.14;1759505;81;20965;-40
2021/12/09 09:43:58;;;;;;;14.45;10.38;;;;;;;2.34;74.69;99220.55;1759822;81;21008;-41
2021/12/09 09:46:28;;;;;;;18.05;11.03;;;;;;;2.36;74.50;99217.03;1760185;81;20964;-40
2021/12/09 09:48:55;;;;;;;;;;;;;;;2.37;74.52;99218.63;1762888;81;21697;-40
2021/12/09 09:51:23;;;;;;;18.73;12.10;;;;;;;2.33;74.52;99217.63;1760271;81;20605;-41
2021/12/09 09:53:50;;;;;;;22.00;11.90;;;;;;;2.16;74.92;99211.13;1760099;81;20995;-40
2021/12/09 09:56:19;;;;;;;17.32;12.07;;;;;;;2.16;75.15;99207.66;1760113;81;21523;-41
2021/12/09 09:58:50;;;;;;;14.90;10.83;;;;;;;2.20;75.18;99209.95;1754432;81;21008;-40
2021/12/09 10:01:17;;;;;;;20.12;12.10;;;;;;;2.26;75.03;99213.30;1760240;81;21099;-40
2021/12/09 10:03:47;;;;;;;19.55;11.65;;;;;;;2.26;74.84;99210.61;1760070;81;21582;-41
2021/12/09 10:06:15;;;;;;;22.32;12.58;;;;;;;2.24;74.96;99215.47;1760397;81;20964;-41
2021/12/09 10:08:42;;;;;;;17.65;12.18;;;;;;;2.21;75.15;99214.76;1760132;81;21033;-40
2021/12/09 10:11:09;;;;;;;18.52;12.23;;;;;;;2.23;75.15;99217.35;1760270;81;21542;-40
2021/12/09 10:13:39;;;;;;;16.70;11.30;;;;;;;2.29;75.25;99214.00;1760194;81;21074;-40
2021/12/09 10:16:21;;;;;;;21.05;12.50;;;;;;;2.39;74.93;99217.75;1760140;81;21950;-40
2021/12/09 10:18:52;;;;;;;17.00;12.35;;;;;;;2.43;74.69;99218.16;1760079;81;20961;-40
2021/12/09 10:21:29;;;;;;;18.12;12.85;;;;;;;2.42;74.68;99221.16;1760504;81;21083;-40
2021/12/09 10:24:00;;;;;;;16.40;11.88;;;;;;;2.42;74.71;99220.59;1760337;81;21060;-41
2021/12/09 10:26:31;;;;;;;15.95;11.85;;;;;;;2.41;74.59;99215.02;1760243;81;21970;-40
2021/12/09 10:29:30;;;;;;;15.28;11.43;;;;;;;2.39;74.60;99216.41;1754249;81;20950;-40
2021/12/09 10:31:55;;;;;;;17.00;11.63;;;;;;;2.46;74.62;99226.13;1740835;81;21037;-41
2021/12/09 10:34:40;;;;;;;19.77;12.05;;;;;;;2.53;74.57;99233.14;1741812;82;21515;-40
2021/12/09 10:37:24;;;;;;;19.55;12.98;;;;;;;2.55;74.54;99218.92;1741786;82;21013;-40
2021/12/09 10:39:59;;;;;;;19.57;12.47;;;;;;;2.55;74.43;99225.06;1742005;81;21109;-40
2021/12/09 10:42:36;;;;;;;17.10;11.50;;;;;;;2.45;74.05;99219.98;1741905;82;20949;-40
2021/12/09 10:45:30;;;;;;;16.42;11.57;;;;;;;2.34;74.23;99216.00;1740947;81;21048;-40
2021/12/09 10:48:20;;;;;;;16.40;11.68;;;;;;;2.34;74.31;99216.00;1741720;82;21029;-40
2021/12/09 10:50:47;;;;;;;20.52;12.50;;;;;;;2.32;74.54;99216.08;1740827;81;22062;-40
2021/12/09 10:56:02;;;;;;;16.32;11.60;;;;;;;2.27;74.53;99216.21;1741572;82;21021;-40
2021/12/09 10:58:34;;;;;;;13.90;10.38;;;;;;;2.27;74.66;99216.21;1741688;82;20965;-41
2021/12/09 11:01:11;;;;;;;14.60;10.63;;;;;;;2.31;74.70;99215.29;1741900;81;21511;-41
2021/12/09 11:03:49;;;;;;;14.43;11.22;;;;;;;2.36;74.53;99219.16;1741819;82;21081;-40
2021/12/09 11:06:37;;;;;;;17.37;11.50;;;;;;;2.34;74.48;99213.87;1741805;82;21145;-40
2021/12/09 11:09:07;;;;;;;18.23;11.43;;;;;;;2.29;74.72;99210.78;1741721;82;20956;-40
2021/12/09 11:11:42;;;;;;;17.32;10.85;;;;;;;2.28;74.73;99215.09;1741846;82;21020;-41
2021/12/09 11:14:18;;;;;;;15.25;11.15;;;;;;;2.25;74.75;99212.50;1741729;82;21021;-41
2021/12/09 11:16:55;;;;;;;15.28;11.10;;;;;;;2.24;74.79;99212.80;1741758;82;20973;-40
2021/12/09 11:19:36;;;;;;;19.32;12.30;;;;;;;2.24;74.98;99212.80;1741611;81;21142;-40
2021/12/09 11:22:02;;;;;;;16.62;11.00;;;;;;;2.22;74.96;99211.00;1742179;81;21017;-40
2021/12/09 11:24:36;;;;;;;13.95;10.75;;;;;;;2.17;74.92;99206.03;1741785;82;21500;-40
2021/12/09 11:27:10;;;;;;;15.70;11.60;;;;;;;2.16;74.85;99212.47;1741871;82;21020;-40
2021/12/09 11:29:47;;;;;;;20.12;11.68;;;;;;;2.16;74.96;99212.47;1741524;81;21550;-40
2021/12/09 11:35:02;;;;;;;21.50;12.60;;;;;;;2.09;75.23;99216.11;1741846;82;20918;-40
2021/12/09 11:40:14;;;;;;;16.75;11.30;;;;;;;2.07;75.43;99212.97;1741456;81;21624;-40
2021/12/09 11:42:48;;;;;;;19.20;12.20;;;;;;;2.08;75.47;99214.52;1741640;82;20957;-41
2021/12/09 11:45:15;;;;;;;24.57;14.47;;;;;;;2.01;75.70;99214.19;1741648;81;21527;-40
2021/12/09 11:47:43;;;;;;;19.83;13.80;;;;;;;1.98;76.00;99213.48;1741806;82;21017;-40
2021/12/09 11:50:17;;;;;;;20.57;14.23;;;;;;;1.96;75.96;99214.86;1741667;82;20952;-40
2021/12/09 11:52:44;;;;;;;18.57;13.13;;;;;;;1.98;75.94;99217.48;1741528;82;20978;-40
2021/12/09 11:55:17;;;;;;;22.17;13.75;;;;;;;1.99;75.95;99214.23;1741756;82;21838;-40
2021/12/09 11:57:51;;;;;;;30.70;15.58;;;;;;;1.97;76.16;99219.12;1741604;82;21494;-40
2021/12/09 12:07:08;;;;;;;22.45;13.60;;;;;;;1.99;76.26;99210.23;1741917;82;20979;-40
2021/12/09 12:12:46;;;;;;;20.57;12.85;;;;;;;1.98;76.18;99215.36;1741718;82;21140;-40
2021/12/09 12:21:11;;;;;;;23.07;13.75;;;;;;;1.98;76.42;99229.52;1741638;81;21471;-40